Time;durP1;ratioP1;P1;durP2;ratioP2;P2;SDS_P1;SDS_P2;PMS_P1;PMS_P2;Temp;Humidity;BMP_temperature;BMP_pressure;BME280_temperature;BME280_humidity;BME280_pressure;Samples;Min_cycle;Max_cycle;Signal;HPM_P1;HPM_P2
2021/07/02 00:00:46;;;;;;;2.77;2.53;;;23.80;99.90;;;;;;4983700;28;22917;-87
2021/07/02 00:03:17;;;;;;;4.33;3.07;;;23.60;99.90;;;;;;4985868;28;20289;-87
2021/07/02 00:05:47;;;;;;;2.83;2.60;;;23.70;99.90;;;;;;4995467;28;20245;-87
2021/07/02 00:08:25;;;;;;;4.13;3.00;;;23.80;99.90;;;;;;4995355;28;20257;-87
2021/07/02 00:10:57;;;;;;;2.87;2.60;;;23.60;99.90;;;;;;4995802;28;20241;-87
2021/07/02 00:13:28;;;;;;;3.03;2.73;;;23.40;99.90;;;;;;5013578;28;20205;-87
2021/07/02 00:16:00;;;;;;;3.37;3.00;;;23.50;99.90;;;;;;5015551;28;20275;-87
2021/07/02 00:18:30;;;;;;;4.77;2.70;;;23.40;99.90;;;;;;5015138;28;20308;-87
2021/07/02 00:21:01;;;;;;;3.90;3.07;;;23.50;99.90;;;;;;5013665;28;20670;-87
2021/07/02 00:23:34;;;;;;;3.47;2.87;;;23.40;99.90;;;;;;5013538;28;20258;-87
2021/07/02 00:26:07;;;;;;;2.83;2.63;;;23.40;99.90;;;;;;5013676;28;20214;-86
2021/07/02 00:28:38;;;;;;;3.20;2.90;;;23.30;99.90;;;;;;4995504;28;20206;-87
2021/07/02 00:31:09;;;;;;;3.90;3.20;;;23.20;99.90;;;;;;4993665;28;20655;-87
2021/07/02 00:33:40;;;;;;;3.43;3.07;;;23.40;99.90;;;;;;4994806;28;20214;-87
2021/07/02 00:36:10;;;;;;;4.60;3.27;;;23.30;99.90;;;;;;4994254;28;20240;-87
2021/07/02 00:38:44;;;;;;;3.27;3.07;;;23.00;99.90;;;;;;4985778;28;20667;-87
2021/07/02 00:41:15;;;;;;;3.27;2.97;;;22.90;99.90;;;;;;4986720;28;20313;-87
2021/07/02 00:43:51;;;;;;;3.70;3.13;;;22.90;99.90;;;;;;4994575;28;20206;-86
2021/07/02 00:46:23;;;;;;;4.53;3.20;;;22.70;99.90;;;;;;4993835;28;20228;-87
2021/07/02 00:48:55;;;;;;;3.47;3.17;;;22.70;99.90;;;;;;4994198;28;20297;-87
2021/07/02 00:51:29;;;;;;;3.47;3.13;;;22.70;99.90;;;;;;4993274;28;20659;-87
2021/07/02 00:54:02;;;;;;;3.40;3.10;;;22.70;99.90;;;;;;4994494;28;20558;-87
2021/07/02 00:56:33;;;;;;;5.20;3.40;;;22.60;99.90;;;;;;4994697;28;20285;-88
2021/07/02 00:59:04;;;;;;;3.13;2.83;;;22.50;99.90;;;;;;4994572;28;20230;-86
2021/07/02 01:01:35;;;;;;;3.30;3.00;;;22.50;99.90;;;;;;4993888;28;20214;-86
2021/07/02 01:04:06;;;;;;;4.17;3.03;;;22.40;99.90;;;;;;4994140;28;20675;-87
2021/07/02 01:06:37;;;;;;;4.20;3.10;;;22.40;99.90;;;;;;4994269;28;20268;-87
2021/07/02 01:09:10;;;;;;;3.37;3.03;;;22.40;99.90;;;;;;4994484;28;20213;-86
2021/07/02 01:11:41;;;;;;;5.80;3.40;;;22.40;99.90;;;;;;4992376;28;20238;-87
2021/07/02 01:14:12;;;;;;;3.50;3.20;;;22.40;99.90;;;;;;4993596;28;20299;-86
2021/07/02 01:16:43;;;;;;;3.33;3.07;;;22.40;99.90;;;;;;4992261;28;20322;-86
2021/07/02 01:19:15;;;;;;;4.30;3.37;;;22.40;99.90;;;;;;4980412;28;20647;-86
2021/07/02 01:21:48;;;;;;;3.43;3.13;;;22.40;99.90;;;;;;4992822;28;20214;-86
2021/07/02 01:24:18;;;;;;;3.87;3.47;;;22.40;99.90;;;;;;4993738;28;20300;-87
2021/07/02 01:26:49;;;;;;;3.60;3.27;;;22.50;99.90;;;;;;4994819;28;20222;-86
2021/07/02 01:29:20;;;;;;;4.93;3.43;;;22.40;99.90;;;;;;4990761;28;20289;-86
2021/07/02 01:31:51;;;;;;;5.07;3.03;;;22.40;99.90;;;;;;4974674;28;20326;-86
2021/07/02 01:34:23;;;;;;;3.80;3.30;;;22.30;99.90;;;;;;4975178;28;20203;-86
2021/07/02 01:36:55;;;;;;;3.80;3.50;;;22.40;99.90;;;;;;4990464;28;20237;-87
2021/07/02 01:39:26;;;;;;;3.63;3.33;;;22.40;99.90;;;;;;4994245;28;20257;-87
2021/07/02 01:41:57;;;;;;;4.30;3.90;;;22.40;99.90;;;;;;4993944;28;20294;-88
2021/07/02 01:44:28;;;;;;;3.83;3.27;;;22.30;99.90;;;;;;4976871;28;20207;-86
2021/07/02 01:46:59;;;;;;;3.90;3.50;;;22.40;99.90;;;;;;4977296;28;20306;-87
2021/07/02 01:49:30;;;;;;;4.00;3.33;;;22.40;99.90;;;;;;4994359;28;20289;-87
2021/07/02 01:52:04;;;;;;;3.67;3.33;;;22.30;99.90;;;;;;4999979;28;20321;-86
2021/07/02 01:54:35;;;;;;;3.80;3.40;;;22.30;99.90;;;;;;5001863;28;20698;-87
2021/07/02 01:57:10;;;;;;;4.53;3.33;;;22.30;99.90;;;;;;5003611;28;20217;-87
2021/07/02 01:59:41;;;;;;;4.87;3.53;;;22.30;99.90;;;;;;4994826;28;20220;-87
2021/07/02 02:02:12;;;;;;;3.87;3.57;;;22.30;99.90;;;;;;5013197;28;20198;-88
2021/07/02 02:04:42;;;;;;;3.67;3.23;;;22.40;99.90;;;;;;5002185;28;20206;-87
2021/07/02 02:07:15;;;;;;;3.60;3.30;;;22.40;99.90;;;;;;5020509;28;20209;-88
2021/07/02 02:09:46;;;;;;;3.63;3.33;;;22.40;99.90;;;;;;5028401;28;20241;-88
2021/07/02 02:12:20;;;;;;;4.33;3.50;;;22.40;99.90;;;;;;5037767;28;20276;-88
2021/07/02 02:14:51;;;;;;;3.90;3.60;;;22.30;99.90;;;;;;5020967;28;20203;-88
2021/07/02 02:17:22;;;;;;;4.43;3.63;;;22.50;99.90;;;;;;4988405;28;20636;-88
2021/07/02 02:19:52;;;;;;;3.90;3.20;;;22.70;99.90;;;;;;4981451;28;20242;-89
2021/07/02 02:22:25;;;;;;;3.87;3.13;;;22.70;99.90;;;;;;4998310;28;20238;-87
2021/07/02 02:24:55;;;;;;;4.20;3.27;;;22.80;99.90;;;;;;4987843;28;20299;-87
2021/07/02 02:27:26;;;;;;;5.10;3.47;;;22.90;99.90;;;;;;4993538;28;20643;-87
2021/07/02 02:29:57;;;;;;;3.20;2.90;;;23.40;99.90;;;;;;4995515;28;20739;-87
2021/07/02 02:32:28;;;;;;;3.30;2.97;;;24.20;99.90;;;;;;4977950;28;20330;-88
2021/07/02 02:34:59;;;;;;;4.33;3.17;;;25.20;99.90;;;;;;4993468;28;20217;-87
2021/07/02 02:37:31;;;;;;;4.30;3.57;;;25.30;99.90;;;;;;4993495;28;20202;-88
2021/07/02 02:40:02;;;;;;;4.43;3.70;;;24.70;99.90;;;;;;4986577;28;20371;-88
2021/07/02 02:42:33;;;;;;;3.97;3.50;;;24.30;99.90;;;;;;4977646;28;20222;-87
2021/07/02 02:45:05;;;;;;;6.43;3.87;;;23.50;99.90;;;;;;4985106;28;20203;-87
2021/07/02 02:47:36;;;;;;;4.67;3.70;;;23.00;99.90;;;;;;4983816;28;20246;-87
2021/07/02 02:50:08;;;;;;;3.80;3.50;;;22.90;99.90;;;;;;4989271;28;20214;-87
2021/07/02 02:52:44;;;;;;;3.80;3.50;;;23.10;99.90;;;;;;4977677;28;20282;-87
2021/07/02 02:55:15;;;;;;;3.93;3.63;;;23.00;99.90;;;;;;4993249;28;20667;-88
2021/07/02 02:57:46;;;;;;;4.13;3.83;;;23.00;99.90;;;;;;4986265;28;20211;-89
2021/07/02 03:00:18;;;;;;;5.47;4.10;;;22.80;99.90;;;;;;4991351;28;20246;-87
2021/07/02 03:02:50;;;;;;;3.70;3.40;;;22.80;99.90;;;;;;4984947;28;20214;-87
2021/07/02 03:05:34;;;;;;;3.73;3.37;;;22.70;99.90;;;;;;4983837;28;20218;-89
2021/07/02 03:08:09;;;;;;;3.67;3.37;;;22.50;99.90;;;;;;4981555;28;20633;-87
2021/07/02 03:10:40;;;;;;;16.07;11.47;;;22.40;99.90;;;;;;4995383;28;20232;-88
2021/07/02 03:13:12;;;;;;;70.23;49.20;;;22.40;99.90;;;;;;4976427;28;20319;-89
2021/07/02 03:15:43;;;;;;;80.27;54.97;;;22.50;99.90;;;;;;4991462;28;20209;-87
2021/07/02 03:18:14;;;;;;;43.60;28.37;;;22.50;99.90;;;;;;4994603;28;20202;-88
2021/07/02 03:20:45;;;;;;;6.60;5.90;;;22.40;99.90;;;;;;4993773;28;20237;-87
2021/07/02 03:23:18;;;;;;;9.50;6.40;;;22.30;99.90;;;;;;4996176;28;20238;-87
2021/07/02 03:25:48;;;;;;;7.33;5.43;;;22.20;99.90;;;;;;4995060;28;20609;-87
2021/07/02 03:28:20;;;;;;;14.70;9.57;;;22.10;99.90;;;;;;4992968;28;20221;-87
2021/07/02 03:30:51;;;;;;;8.60;6.20;;;22.10;99.90;;;;;;4994838;28;20218;-87
2021/07/02 03:33:22;;;;;;;6.70;5.90;;;22.10;99.90;;;;;;4991523;28;20233;-87
2021/07/02 03:35:53;;;;;;;5.97;4.60;;;22.10;99.90;;;;;;4994456;28;20234;-87
2021/07/02 03:38:25;;;;;;;5.17;4.67;;;22.00;99.90;;;;;;4994713;28;20241;-87
2021/07/02 03:40:56;;;;;;;4.27;3.87;;;22.00;99.90;;;;;;4980926;28;20238;-88
2021/07/02 03:43:27;;;;;;;6.33;5.33;;;21.90;99.90;;;;;;4989366;28;20246;-87
2021/07/02 03:45:59;;;;;;;5.47;4.33;;;21.80;99.90;;;;;;4982728;28;20195;-87
2021/07/02 03:48:30;;;;;;;4.77;4.00;;;21.70;99.90;;;;;;4976036;28;20211;-87
2021/07/02 03:51:01;;;;;;;4.20;3.80;;;21.70;99.90;;;;;;4975266;28;20246;-87
2021/07/02 03:53:33;;;;;;;4.03;3.63;;;21.70;99.90;;;;;;5006762;28;20335;-87
2021/07/02 03:56:05;;;;;;;4.37;3.80;;;21.60;99.90;;;;;;4981059;28;20684;-87
2021/07/02 03:58:36;;;;;;;4.17;3.20;;;21.50;99.90;;;;;;4975968;28;20230;-87
2021/07/02 04:01:07;;;;;;;4.73;3.03;;;21.50;99.90;;;;;;4977227;28;20210;-88
2021/07/02 04:03:38;;;;;;;4.10;2.90;;;21.40;99.90;;;;;;4982733;28;20253;-87
2021/07/02 04:06:09;;;;;;;3.53;2.80;;;21.40;99.90;;;;;;4994827;28;20249;-87
2021/07/02 04:08:42;;;;;;;4.03;3.20;;;21.30;99.90;;;;;;5007330;28;20645;-87
2021/07/02 04:11:13;;;;;;;3.70;2.97;;;21.30;99.90;;;;;;5014133;28;20209;-88
2021/07/02 04:13:44;;;;;;;4.93;3.40;;;21.30;99.90;;;;;;5002413;28;20735;-88
2021/07/02 04:16:15;;;;;;;3.50;3.10;;;21.50;99.90;;;;;;4982603;28;20214;-87
2021/07/02 04:18:46;;;;;;;4.03;3.57;;;21.40;99.90;;;;;;4987993;28;20687;-87
2021/07/02 04:21:16;;;;;;;4.03;3.63;;;21.40;99.90;;;;;;4994793;28;20292;-87
2021/07/02 04:23:49;;;;;;;5.80;3.57;;;21.40;99.90;;;;;;4994137;28;20237;-87
2021/07/02 04:26:19;;;;;;;4.90;3.37;;;21.30;99.90;;;;;;4994507;28;20301;-87
2021/07/02 04:28:50;;;;;;;4.97;3.40;;;21.20;99.90;;;;;;4993872;28;20285;-87
2021/07/02 04:31:20;;;;;;;6.20;2.87;;;21.30;99.90;;;;;;4994741;28;20244;-88
2021/07/02 04:33:51;;;;;;;5.73;3.63;;;21.20;99.90;;;;;;4995900;28;20226;-87
2021/07/02 04:36:22;;;;;;;3.33;2.87;;;21.10;99.90;;;;;;5006617;28;20268;-87
2021/07/02 04:38:56;;;;;;;7.63;3.37;;;21.10;99.90;;;;;;5015090;28;20632;-87
2021/07/02 04:41:27;;;;;;;4.70;3.20;;;21.10;99.90;;;;;;5017978;28;20267;-88
2021/07/02 04:43:57;;;;;;;4.13;2.60;;;21.20;99.90;;;;;;5020994;28;20190;-88
2021/07/02 04:46:28;;;;;;;5.67;2.77;;;21.20;99.90;;;;;;5001705;28;20203;-88
2021/07/02 04:48:59;;;;;;;3.00;2.63;;;21.20;99.90;;;;;;4991676;28;20265;-88
2021/07/02 04:51:29;;;;;;;3.00;2.80;;;21.20;99.90;;;;;;4986724;28;20269;-88
2021/07/02 04:54:02;;;;;;;4.07;3.30;;;21.20;99.90;;;;;;4993958;28;20245;-87
2021/07/02 04:56:33;;;;;;;6.47;3.20;;;21.10;99.90;;;;;;4975066;28;20242;-88
2021/07/02 04:59:03;;;;;;;3.73;3.17;;;21.10;99.90;;;;;;4981226;28;20199;-88
2021/07/02 05:01:34;;;;;;;3.40;3.10;;;21.20;99.90;;;;;;4978610;28;20242;-86
2021/07/02 05:04:06;;;;;;;7.20;4.10;;;21.10;99.90;;;;;;4982118;28;20213;-87
2021/07/02 05:06:39;;;;;;;5.70;4.57;;;21.10;99.90;;;;;;4987969;28;20302;-88
2021/07/02 05:09:12;;;;;;;6.57;4.87;;;21.10;99.90;;;;;;4975042;28;20317;-87
2021/07/02 05:11:43;;;;;;;6.80;4.70;;;21.10;99.90;;;;;;4978174;28;20293;-89
2021/07/02 05:14:14;;;;;;;6.83;4.87;;;21.10;99.90;;;;;;4993662;28;20673;-87
2021/07/02 05:16:44;;;;;;;5.50;4.73;;;21.00;99.90;;;;;;4988653;28;20202;-87
2021/07/02 05:19:16;;;;;;;6.53;5.40;;;21.00;99.90;;;;;;4995170;28;20737;-87
2021/07/02 05:21:46;;;;;;;5.60;5.00;;;21.00;99.90;;;;;;4991549;28;20301;-87
2021/07/02 05:24:19;;;;;;;6.10;5.17;;;20.90;99.90;;;;;;4989733;28;20672;-87
2021/07/02 05:26:49;;;;;;;7.30;4.80;;;20.80;99.90;;;;;;4976279;28;20202;-87
2021/07/02 05:29:20;;;;;;;7.73;4.93;;;20.80;99.90;;;;;;4974551;28;20583;-86
2021/07/02 05:31:51;;;;;;;6.43;4.90;;;20.80;99.90;;;;;;4978574;28;20275;-86
2021/07/02 05:34:22;;;;;;;6.03;4.83;;;20.90;99.90;;;;;;4994330;28;20276;-87
2021/07/02 05:36:52;;;;;;;9.23;5.43;;;20.80;99.90;;;;;;4993935;28;20233;-87
2021/07/02 05:39:25;;;;;;;7.70;4.87;;;20.90;99.90;;;;;;4993945;28;20268;-86
2021/07/02 05:41:56;;;;;;;7.73;4.37;;;20.80;99.90;;;;;;4992640;28;20217;-87
2021/07/02 05:44:27;;;;;;;8.40;5.23;;;20.80;99.90;;;;;;4994115;28;20207;-87
2021/07/02 05:46:58;;;;;;;6.40;4.93;;;20.80;99.90;;;;;;4990945;28;20234;-87
2021/07/02 05:49:30;;;;;;;6.73;5.37;;;20.80;99.90;;;;;;4974527;28;20211;-86
2021/07/02 05:52:01;;;;;;;7.33;4.63;;;20.80;99.90;;;;;;4991144;28;20226;-87
2021/07/02 05:54:34;;;;;;;8.07;5.20;;;20.80;99.90;;;;;;4992033;28;20265;-87
2021/07/02 05:57:05;;;;;;;6.03;5.13;;;20.80;99.90;;;;;;4993411;28;20210;-86
2021/07/02 05:59:36;;;;;;;9.03;5.20;;;20.70;99.90;;;;;;4990987;28;20289;-86
2021/07/02 06:02:06;;;;;;;6.40;4.67;;;20.70;99.90;;;;;;4993479;28;20245;-86
2021/07/02 06:04:39;;;;;;;6.60;4.87;;;20.70;99.90;;;;;;4991158;28;20261;-86
2021/07/02 06:07:10;;;;;;;6.60;4.63;;;20.70;99.90;;;;;;4997049;28;20198;-87
2021/07/02 06:09:43;;;;;;;8.23;4.90;;;20.70;99.90;;;;;;5013709;28;20245;-87
2021/07/02 06:12:14;;;;;;;5.73;4.90;;;20.70;99.90;;;;;;5013283;28;20308;-86
2021/07/02 06:14:44;;;;;;;6.67;4.33;;;20.60;99.90;;;;;;5005746;28;20296;-87
2021/07/02 06:17:16;;;;;;;6.30;5.20;;;20.60;99.90;;;;;;4994365;28;20659;-87
2021/07/02 06:19:47;;;;;;;7.70;4.60;;;20.60;99.90;;;;;;4992823;28;20702;-87
2021/07/02 06:22:18;;;;;;;7.87;4.87;;;20.60;99.90;;;;;;4985024;28;20289;-86
2021/07/02 06:24:50;;;;;;;7.97;4.60;;;20.70;99.90;;;;;;4976379;28;20210;-87
2021/07/02 06:27:21;;;;;;;6.63;4.60;;;20.70;99.90;;;;;;4974509;28;20239;-86
2021/07/02 06:29:52;;;;;;;5.40;4.47;;;20.70;99.90;;;;;;4981339;28;20226;-91
2021/07/02 06:32:22;;;;;;;5.83;4.27;;;20.70;99.90;;;;;;4994092;28;20237;-86
2021/07/02 06:34:53;;;;;;;6.37;5.13;;;20.70;99.90;;;;;;4993738;28;20596;-86
2021/07/02 06:37:24;;;;;;;6.63;4.33;;;20.70;99.90;;;;;;5001281;28;20213;-87
2021/07/02 06:39:57;;;;;;;6.90;4.90;;;20.70;99.90;;;;;;5003882;28;20234;-87
2021/07/02 06:42:27;;;;;;;9.63;4.53;;;20.60;99.90;;;;;;4997664;28;20659;-86
2021/07/02 06:44:58;;;;;;;4.83;4.43;;;20.60;99.90;;;;;;4997154;28;20253;-86
2021/07/02 06:47:29;;;;;;;4.83;4.43;;;20.60;99.90;;;;;;4997579;28;20210;-89
2021/07/02 06:50:02;;;;;;;5.20;4.07;;;20.50;99.90;;;;;;4996950;28;20209;-87
2021/07/02 06:52:37;;;;;;;5.23;4.70;;;20.50;99.90;;;;;;4998045;28;20214;-87
2021/07/02 06:55:12;;;;;;;5.00;4.50;;;20.50;99.90;;;;;;4998087;28;20238;-88
2021/07/02 06:57:42;;;;;;;6.37;4.50;;;20.50;99.90;;;;;;4998126;28;20293;-87
2021/07/02 07:00:16;;;;;;;5.00;4.50;;;20.50;99.90;;;;;;4996260;28;20253;-87
2021/07/02 07:02:49;;;;;;;4.93;4.43;;;20.50;99.90;;;;;;4997089;28;20381;-87
2021/07/02 07:05:20;;;;;;;6.17;4.40;;;20.50;99.90;;;;;;4997398;28;20212;-87
2021/07/02 07:07:51;;;;;;;5.67;4.67;;;20.50;99.90;;;;;;4997619;28;20647;-87
2021/07/02 07:10:23;;;;;;;5.13;4.60;;;20.40;99.90;;;;;;4996883;28;20268;-88
2021/07/02 07:12:54;;;;;;;6.23;5.00;;;20.30;99.90;;;;;;4998393;28;20214;-88
2021/07/02 07:15:26;;;;;;;4.20;3.63;;;20.40;99.90;;;;;;5016144;28;20241;-87
2021/07/02 07:17:57;;;;;;;5.70;4.13;;;20.30;99.90;;;;;;5017524;28;20202;-89
2021/07/02 07:20:30;;;;;;;4.63;4.13;;;20.30;99.90;;;;;;5006711;28;20241;-89
2021/07/02 07:23:02;;;;;;;4.67;4.23;;;20.40;99.90;;;;;;4986896;28;20226;-87
2021/07/02 07:25:35;;;;;;;5.60;4.30;;;20.30;99.90;;;;;;4991650;28;20210;-86
2021/07/02 07:28:06;;;;;;;4.50;4.10;;;20.30;99.90;;;;;;4997520;28;20213;-87
2021/07/02 07:30:37;;;;;;;6.17;4.53;;;20.30;99.90;;;;;;4997937;28;20218;-87
2021/07/02 07:33:08;;;;;;;4.23;3.83;;;20.30;99.90;;;;;;4991363;28;20664;-88
2021/07/02 07:35:41;;;;;;;4.20;3.80;;;20.30;99.90;;;;;;4987937;28;20321;-87
2021/07/02 07:38:12;;;;;;;4.83;4.33;;;20.20;99.90;;;;;;5005971;28;20209;-87
2021/07/02 07:40:44;;;;;;;4.27;3.87;;;20.20;99.90;;;;;;4999967;28;20313;-87
2021/07/02 07:43:18;;;;;;;7.33;3.83;;;20.20;99.90;;;;;;4997168;28;20236;-87
2021/07/02 07:45:50;;;;;;;8.63;4.00;;;20.20;99.90;;;;;;4997112;28;20214;-86
2021/07/02 07:48:21;;;;;;;5.30;4.20;;;20.10;99.90;;;;;;4995448;28;20245;-87
2021/07/02 07:50:54;;;;;;;7.40;4.50;;;20.10;99.90;;;;;;4995404;28;20241;-87
2021/07/02 07:53:24;;;;;;;7.17;4.47;;;20.00;99.90;;;;;;5009727;28;20237;-86
2021/07/02 07:55:57;;;;;;;6.10;3.87;;;20.00;99.90;;;;;;5014821;28;20264;-89
2021/07/02 07:58:28;;;;;;;5.47;4.10;;;20.00;99.90;;;;;;5015092;28;20304;-87
2021/07/02 08:01:00;;;;;;;7.13;4.77;;;20.00;99.90;;;;;;5014400;28;20209;-87
2021/07/02 08:03:31;;;;;;;7.57;4.63;;;20.00;99.90;;;;;;5014461;28;20233;-87
2021/07/02 08:06:02;;;;;;;7.33;4.67;;;20.00;99.90;;;;;;5005895;28;20241;-88
2021/07/02 08:08:33;;;;;;;5.77;4.40;;;20.00;99.90;;;;;;4995328;28;20245;-87
2021/07/02 08:11:08;;;;;;;6.83;3.80;;;20.00;99.90;;;;;;4994479;28;20302;-87
2021/07/02 08:13:39;;;;;;;4.50;4.07;;;20.00;99.90;;;;;;4995288;28;20223;-87
2021/07/02 08:16:10;;;;;;;6.57;4.60;;;20.00;99.90;;;;;;4992202;28;20280;-87
2021/07/02 08:18:41;;;;;;;5.83;4.10;;;20.00;99.90;;;;;;5013022;28;20678;-87
2021/07/02 08:21:12;;;;;;;7.27;4.50;;;20.00;99.90;;;;;;4994654;28;20214;-87
2021/07/02 08:23:43;;;;;;;6.33;4.27;;;20.00;99.90;;;;;;4996674;28;20660;-88
2021/07/02 08:26:17;;;;;;;7.13;4.20;;;20.00;99.90;;;;;;4977992;28;20728;-88
2021/07/02 08:31:35;;;;;;;6.93;4.27;;;19.90;99.90;;;;;;4974902;28;20294;-88
2021/07/02 08:34:06;;;;;;;7.50;4.30;;;20.00;99.90;;;;;;4975775;28;20214;-87
2021/07/02 08:36:37;;;;;;;7.80;4.10;;;20.00;99.90;;;;;;4989575;28;20962;-87
2021/07/02 08:39:07;;;;;;;11.37;4.57;;;19.90;99.90;;;;;;4995222;28;20289;-87
2021/07/02 08:41:40;;;;;;;8.27;4.50;;;19.90;99.90;;;;;;4994506;28;20293;-88
2021/07/02 08:44:11;;;;;;;9.40;4.70;;;19.90;99.90;;;;;;4994790;28;20237;-87
2021/07/02 08:46:43;;;;;;;8.73;4.57;;;19.90;99.90;;;;;;4994507;28;20206;-88
2021/07/02 08:49:30;;;;;;;11.93;5.17;;;19.90;99.90;;;;;;4994728;28;20272;-86
2021/07/02 08:52:02;;;;;;;6.87;4.80;;;19.80;99.90;;;;;;4993488;28;20304;-87
2021/07/02 08:54:32;;;;;;;15.47;5.40;;;19.80;99.90;;;;;;4994704;28;20248;-87
2021/07/02 08:57:05;;;;;;;7.83;4.73;;;19.80;99.90;;;;;;4992902;28;20258;-86
2021/07/02 08:59:37;;;;;;;7.30;4.03;;;19.80;99.90;;;;;;4993941;28;20210;-86
2021/07/02 09:02:07;;;;;;;7.03;4.60;;;19.70;99.90;;;;;;4993599;28;20401;-87
2021/07/02 09:04:39;;;;;;;5.90;4.37;;;19.70;99.90;;;;;;4993988;28;20297;-87
2021/07/02 09:07:11;;;;;;;7.00;4.70;;;19.60;99.90;;;;;;4993981;28;20238;-87
2021/07/02 09:09:51;;;;;;;8.77;4.97;;;19.60;99.90;;;;;;4994437;28;20289;-87
2021/07/02 09:12:25;;;;;;;8.23;5.20;;;19.60;99.90;;;;;;4994498;28;20296;-88
2021/07/02 09:15:09;;;;;;;11.73;4.67;;;19.60;99.90;;;;;;4993849;28;20233;-87
2021/07/02 09:17:54;;;;;;;5.97;4.73;;;19.60;99.90;;;;;;4993811;28;20305;-87
2021/07/02 09:20:25;;;;;;;11.00;4.90;;;19.50;99.90;;;;;;4993282;28;20230;-87
2021/07/02 09:22:58;;;;;;;7.40;4.90;;;19.50;99.90;;;;;;4994063;28;20292;-87
2021/07/02 09:25:32;;;;;;;8.53;4.60;;;19.40;99.90;;;;;;4994069;28;20206;-87
2021/07/02 09:28:08;;;;;;;9.73;4.53;;;19.50;99.90;;;;;;4994503;28;20262;-87
2021/07/02 09:30:40;;;;;;;8.03;4.90;;;19.40;99.90;;;;;;4993400;28;20690;-88
2021/07/02 09:33:12;;;;;;;5.17;4.50;;;19.40;99.90;;;;;;4993479;28;20293;-87
2021/07/02 09:35:50;;;;;;;7.20;4.50;;;19.40;99.90;;;;;;4993975;28;20269;-87
2021/07/02 09:38:32;;;;;;;7.63;4.80;;;19.40;99.90;;;;;;4994455;28;20322;-87
2021/07/02 09:41:04;;;;;;;10.33;4.70;;;19.40;99.90;;;;;;4993338;28;20211;-87
2021/07/02 09:43:38;;;;;;;9.23;5.03;;;19.40;99.90;;;;;;4994330;28;20583;-88
2021/07/02 09:46:11;;;;;;;8.40;5.17;;;19.30;99.90;;;;;;4997903;28;20205;-87
2021/07/02 09:48:43;;;;;;;8.77;5.33;;;19.30;99.90;;;;;;5015236;28;20217;-87
2021/07/02 09:51:14;;;;;;;8.50;5.03;;;19.20;99.90;;;;;;5014853;28;20198;-87
2021/07/02 09:53:45;;;;;;;7.97;4.80;;;19.20;99.90;;;;;;5013596;28;20210;-86
2021/07/02 09:56:21;;;;;;;9.30;5.10;;;19.20;99.90;;;;;;4997416;28;20308;-88
2021/07/02 09:58:54;;;;;;;9.37;5.30;;;19.10;99.90;;;;;;4993932;28;20269;-87
2021/07/02 10:01:29;;;;;;;11.90;5.30;;;19.10;99.90;;;;;;4992463;28;20405;-87
2021/07/02 10:04:10;;;;;;;10.07;4.90;;;19.10;99.90;;;;;;4997343;28;20246;-85
2021/07/02 10:06:40;;;;;;;9.37;5.00;;;19.10;99.90;;;;;;4994018;28;20649;-88
2021/07/02 10:09:11;;;;;;;8.87;5.00;;;19.00;99.90;;;;;;4993833;28;20645;-87
2021/07/02 10:11:43;;;;;;;9.20;5.97;;;19.10;99.90;;;;;;4995766;28;20591;-88
2021/07/02 10:14:16;;;;;;;9.30;4.50;;;19.00;99.90;;;;;;4998145;28;20716;-87
2021/07/02 10:16:47;;;;;;;9.53;5.07;;;19.00;99.90;;;;;;4998009;28;20324;-86
2021/07/02 10:19:19;;;;;;;9.13;5.30;;;19.00;99.90;;;;;;4997823;28;20597;-87
2021/07/02 10:21:50;;;;;;;10.33;5.50;;;19.00;99.90;;;;;;5010762;28;20324;-87
2021/07/02 10:24:22;;;;;;;7.17;4.60;;;19.00;99.90;;;;;;5014508;28;20392;-87
2021/07/02 10:26:53;;;;;;;9.70;5.30;;;19.00;99.90;;;;;;4996935;28;20238;-87
2021/07/02 10:29:28;;;;;;;7.47;4.40;;;19.00;99.90;;;;;;4997068;28;20636;-87
2021/07/02 10:31:59;;;;;;;8.80;5.03;;;19.00;99.90;;;;;;4996063;28;20288;-87
2021/07/02 10:34:30;;;;;;;10.70;5.07;;;19.00;99.90;;;;;;4997047;28;20207;-87
2021/07/02 10:37:03;;;;;;;6.63;4.57;;;19.00;99.90;;;;;;4996883;28;20272;-87
2021/07/02 10:39:36;;;;;;;8.53;4.90;;;18.90;99.90;;;;;;4997448;28;20294;-87
2021/07/02 10:42:13;;;;;;;9.03;4.93;;;18.90;99.90;;;;;;4995997;28;20547;-87
2021/07/02 10:45:11;;;;;;;10.07;5.70;;;18.80;99.90;;;;;;4977508;28;20234;-88
2021/07/02 10:47:53;;;;;;;7.00;4.90;;;18.70;99.90;;;;;;4977739;28;20207;-87
2021/07/02 10:50:43;;;;;;;11.10;4.87;;;18.60;99.90;;;;;;4978087;28;20662;-87
2021/07/02 10:53:31;;;;;;;10.73;5.57;;;18.60;99.90;;;;;;4977673;28;20294;-86
2021/07/02 10:56:28;;;;;;;10.60;4.50;;;18.60;99.90;;;;;;4977539;28;20215;-87
2021/07/02 10:58:59;;;;;;;8.13;5.43;;;18.60;99.90;;;;;;4977927;28;20265;-88
2021/07/02 11:01:32;;;;;;;12.17;5.20;;;18.60;99.90;;;;;;4976634;28;20206;-87
2021/07/02 11:04:33;;;;;;;10.57;4.73;;;18.60;99.90;;;;;;4977404;28;20203;-87
2021/07/02 11:07:25;;;;;;;7.83;4.83;;;18.60;99.90;;;;;;5011872;28;20649;-87
2021/07/02 11:10:00;;;;;;;9.40;5.30;;;18.60;99.90;;;;;;5015098;28;20304;-88
2021/07/02 11:12:32;;;;;;;7.87;4.53;;;18.60;99.90;;;;;;5015250;28;20252;-87
2021/07/02 11:15:13;;;;;;;8.57;4.73;;;18.50;99.90;;;;;;5015773;28;20240;-86
2021/07/02 11:17:47;;;;;;;10.53;4.87;;;18.50;99.90;;;;;;5016263;28;20688;-87
2021/07/02 11:20:33;;;;;;;10.57;5.17;;;18.50;99.90;;;;;;5015145;28;20570;-87
2021/07/02 11:23:24;;;;;;;8.17;5.10;;;18.40;99.90;;;;;;5014501;28;20674;-87
2021/07/02 11:26:11;;;;;;;9.73;4.90;;;18.20;99.90;;;;;;5015716;28;20230;-86
2021/07/02 11:28:54;;;;;;;8.93;5.03;;;18.20;99.90;;;;;;5015454;28;20205;-87
2021/07/02 11:31:37;;;;;;;8.67;5.20;;;18.30;99.90;;;;;;5012437;28;20226;-87
2021/07/02 11:34:20;;;;;;;9.40;4.97;;;18.30;99.90;;;;;;5015471;28;20206;-87
2021/07/02 11:37:09;;;;;;;8.27;4.90;;;18.30;99.90;;;;;;4999551;28;20292;-87
2021/07/02 11:39:40;;;;;;;11.10;5.10;;;18.30;99.90;;;;;;4996220;28;20293;-86
2021/07/02 11:42:13;;;;;;;7.80;4.80;;;18.30;99.90;;;;;;4996679;28;20296;-86
2021/07/02 11:44:47;;;;;;;8.90;4.60;;;18.20;99.90;;;;;;4995865;28;20329;-86
2021/07/02 11:47:18;;;;;;;9.80;4.60;;;18.20;99.90;;;;;;4995626;28;20394;-87
2021/07/02 11:50:01;;;;;;;10.07;5.27;;;18.20;99.90;;;;;;4995758;28;20692;-86
2021/07/02 11:52:37;;;;;;;8.47;4.80;;;18.20;99.90;;;;;;5002516;28;20288;-87
2021/07/02 11:55:09;;;;;;;8.73;5.07;;;18.10;99.90;;;;;;5015100;28;20225;-87
2021/07/02 11:57:39;;;;;;;9.50;4.73;;;18.10;99.90;;;;;;5015119;28;20230;-86
2021/07/02 12:00:10;;;;;;;9.40;5.20;;;18.10;99.90;;;;;;5014154;28;20301;-86
2021/07/02 12:02:49;;;;;;;12.17;5.47;;;18.10;99.90;;;;;;5014875;28;20244;-86
2021/07/02 12:05:22;;;;;;;8.40;4.70;;;18.10;99.90;;;;;;5015492;28;20222;-86
2021/07/02 12:07:53;;;;;;;8.50;5.13;;;18.00;99.90;;;;;;5015322;28;20241;-87
2021/07/02 12:10:24;;;;;;;10.07;5.33;;;18.00;99.90;;;;;;4993456;28;20290;-88
2021/07/02 12:13:07;;;;;;;11.13;5.13;;;18.10;99.90;;;;;;4975489;28;20310;-86
2021/07/02 12:15:39;;;;;;;8.50;4.90;;;18.10;99.90;;;;;;4976238;28;20282;-87
2021/07/02 12:18:10;;;;;;;8.90;5.27;;;18.10;99.90;;;;;;4976646;28;20231;-86
2021/07/02 12:20:43;;;;;;;10.47;5.40;;;18.10;99.90;;;;;;5010767;28;20214;-87
2021/07/02 12:23:13;;;;;;;8.00;5.00;;;18.00;99.90;;;;;;5017010;28;20224;-86
2021/07/02 12:26:16;;;;;;;10.70;4.73;;;18.10;99.90;;;;;;5001213;28;20203;-86
2021/07/02 12:29:00;;;;;;;9.07;4.83;;;18.00;99.90;;;;;;4978461;28;20610;-87
2021/07/02 12:31:33;;;;;;;10.87;4.67;;;18.00;99.90;;;;;;5010696;28;20546;-86
2021/07/02 12:34:06;;;;;;;12.00;5.30;;;18.00;99.90;;;;;;5015593;28;20214;-87
2021/07/02 12:36:53;;;;;;;11.63;5.87;;;17.80;99.90;;;;;;5016348;28;20218;-87
2021/07/02 12:39:29;;;;;;;9.67;4.93;;;17.70;99.90;;;;;;5017595;28;20549;-86
2021/07/02 12:42:03;;;;;;;10.63;5.43;;;17.60;99.90;;;;;;5017019;28;20296;-87
2021/07/02 12:44:34;;;;;;;14.43;6.20;;;17.70;99.90;;;;;;5017804;28;20205;-87
2021/07/02 12:47:07;;;;;;;10.30;5.33;;;17.80;99.90;;;;;;5018303;28;20575;-87
2021/07/02 12:49:45;;;;;;;8.67;5.37;;;17.80;99.90;;;;;;5026086;28;20205;-87
2021/07/02 12:55:21;;;;;;;10.60;5.07;;;17.80;99.90;;;;;;5036087;28;20241;-86
2021/07/02 12:57:57;;;;;;;12.07;5.40;;;17.80;99.90;;;;;;5026751;28;20257;-87
2021/07/02 13:00:31;;;;;;;10.63;5.30;;;17.80;99.90;;;;;;5011375;28;20293;-87
2021/07/02 13:03:05;;;;;;;10.67;5.20;;;17.70;99.90;;;;;;4999313;28;20723;-87
2021/07/02 13:05:38;;;;;;;11.50;5.50;;;17.80;99.90;;;;;;4998852;28;20296;-88
2021/07/02 13:08:12;;;;;;;9.90;5.40;;;17.80;99.90;;;;;;4995418;28;20293;-87
2021/07/02 13:10:47;;;;;;;9.27;5.23;;;17.70;99.90;;;;;;4995605;28;20213;-87
2021/07/02 13:13:19;;;;;;;10.40;5.80;;;17.70;99.90;;;;;;4997229;28;20241;-87
2021/07/02 13:16:05;;;;;;;11.03;5.23;;;17.80;99.90;;;;;;4994935;28;20312;-87
2021/07/02 13:18:37;;;;;;;9.83;5.20;;;17.70;99.90;;;;;;4996390;28;20238;-87
2021/07/02 13:21:11;;;;;;;10.93;5.23;;;17.60;99.90;;;;;;4994043;28;20210;-86